createdAt,value
2022-12-05T00:00:35.650Z,1012.33
2022-12-05T00:01:35.763Z,1012.33
2022-12-05T00:02:35.726Z,1012.29
2022-12-05T00:03:35.652Z,1012.28
2022-12-05T00:04:35.729Z,1012.31
2022-12-05T00:05:35.661Z,1012.29
2022-12-05T00:06:35.658Z,1012.31
2022-12-05T00:07:35.688Z,1012.26
2022-12-05T00:08:35.687Z,1012.24
2022-12-05T00:09:35.662Z,1012.28
2022-12-05T00:10:35.661Z,1012.30
2022-12-05T00:11:35.678Z,1012.27
2022-12-05T00:12:35.670Z,1012.28
2022-12-05T00:13:35.677Z,1012.27
2022-12-05T00:14:35.667Z,1012.28
2022-12-05T00:15:35.678Z,1012.28
2022-12-05T00:16:35.754Z,1012.22
2022-12-05T00:17:35.672Z,1012.21
2022-12-05T00:18:35.673Z,1012.21
2022-12-05T00:19:35.676Z,1012.21
2022-12-05T00:20:35.681Z,1012.21
2022-12-05T00:21:35.677Z,1012.20
2022-12-05T00:22:35.680Z,1012.25
2022-12-05T00:23:35.681Z,1012.21
2022-12-05T00:24:35.712Z,1012.23
2022-12-05T00:25:35.681Z,1012.26
2022-12-05T00:26:35.686Z,1012.22
2022-12-05T00:27:35.687Z,1012.22
2022-12-05T00:28:35.694Z,1012.18
2022-12-05T00:29:35.694Z,1012.21
2022-12-05T00:30:35.697Z,1012.20
2022-12-05T00:31:35.718Z,1012.20
2022-12-05T00:32:35.692Z,1012.16
2022-12-05T00:33:35.699Z,1012.17
2022-12-05T00:34:35.697Z,1012.21
2022-12-05T00:35:35.705Z,1012.18
2022-12-05T00:36:35.704Z,1012.19
2022-12-05T00:37:35.708Z,1012.20
2022-12-05T00:38:35.709Z,1012.25
2022-12-05T00:39:35.709Z,1012.22
2022-12-05T00:40:35.731Z,1012.24
2022-12-05T00:41:35.715Z,1012.17
2022-12-05T00:42:35.707Z,1012.20
2022-12-05T00:43:35.707Z,1012.23
2022-12-05T00:44:35.706Z,1012.16
2022-12-05T00:45:35.750Z,1012.21
2022-12-05T00:46:35.876Z,1012.22
2022-12-05T00:47:35.727Z,1012.21
2022-12-05T00:48:35.722Z,1012.20
2022-12-05T00:49:35.718Z,1012.15
2022-12-05T00:50:35.715Z,1012.17
2022-12-05T00:51:35.726Z,1012.15
2022-12-05T00:52:35.717Z,1012.14
2022-12-05T00:53:35.727Z,1012.13
2022-12-05T00:54:35.719Z,1012.15
2022-12-05T00:55:35.723Z,1012.11
2022-12-05T00:56:35.753Z,1012.15
2022-12-05T00:57:35.725Z,1012.15
2022-12-05T00:58:35.726Z,1012.19
2022-12-05T00:59:35.735Z,1012.18
2022-12-05T01:00:35.737Z,1012.17
2022-12-05T01:01:35.929Z,1012.18
2022-12-05T01:02:35.731Z,1012.18
2022-12-05T01:03:35.861Z,1012.21
2022-12-05T01:04:35.743Z,1012.21
2022-12-05T01:05:35.742Z,1012.17
2022-12-05T01:06:35.749Z,1012.20
2022-12-05T01:07:35.799Z,1012.21
2022-12-05T01:08:35.745Z,1012.20
2022-12-05T01:09:35.748Z,1012.20
2022-12-05T01:10:35.749Z,1012.19
2022-12-05T01:11:40.990Z,1012.18
2022-12-05T01:12:35.769Z,1012.17
2022-12-05T01:13:35.747Z,1012.17
2022-12-05T01:14:35.747Z,1012.20
2022-12-05T01:15:35.756Z,1012.18
2022-12-05T01:16:35.888Z,1012.21
2022-12-05T01:17:35.755Z,1012.18
2022-12-05T01:18:35.752Z,1012.18
2022-12-05T01:19:35.763Z,1012.22
2022-12-05T01:20:35.763Z,1012.21
2022-12-05T01:21:35.764Z,1012.16
2022-12-05T01:22:35.758Z,1012.15
2022-12-05T01:23:35.760Z,1012.15
2022-12-05T01:24:35.759Z,1012.19
2022-12-05T01:25:35.769Z,1012.13
2022-12-05T01:26:35.764Z,1012.14
2022-12-05T01:27:35.763Z,1012.12
2022-12-05T01:28:35.865Z,1012.14
2022-12-05T01:29:35.766Z,1012.15
2022-12-05T01:30:35.771Z,1012.14
2022-12-05T01:31:35.843Z,1012.11
2022-12-05T01:32:35.771Z,1012.12
2022-12-05T01:33:35.772Z,1012.13
2022-12-05T01:34:35.784Z,1012.15
2022-12-05T01:35:35.776Z,1012.14
2022-12-05T01:36:35.783Z,1012.15
2022-12-05T01:37:35.785Z,1012.16
2022-12-05T01:38:35.780Z,1012.17
2022-12-05T01:39:35.780Z,1012.17
2022-12-05T01:40:35.792Z,1012.17
2022-12-05T01:41:35.782Z,1012.16
2022-12-05T01:42:35.793Z,1012.16
2022-12-05T01:43:35.795Z,1012.19
2022-12-05T01:44:35.812Z,1012.19
2022-12-05T01:45:35.907Z,1012.15
2022-12-05T01:46:35.797Z,1012.18
2022-12-05T01:47:35.801Z,1012.19
2022-12-05T01:48:35.792Z,1012.16
2022-12-05T01:49:35.803Z,1012.18
2022-12-05T01:50:35.803Z,1012.19
2022-12-05T01:51:35.806Z,1012.20
2022-12-05T01:52:35.806Z,1012.19
2022-12-05T01:53:35.809Z,1012.14
2022-12-05T01:54:35.808Z,1012.18
2022-12-05T01:55:35.812Z,1012.16
2022-12-05T01:56:35.810Z,1012.20
2022-12-05T01:57:35.815Z,1012.16
2022-12-05T01:58:35.814Z,1012.13
2022-12-05T01:59:35.817Z,1012.14
2022-12-05T02:00:35.844Z,1012.17
2022-12-05T02:01:35.937Z,1012.18
2022-12-05T02:02:35.900Z,1012.16
2022-12-05T02:03:35.832Z,1012.20
2022-12-05T02:04:35.817Z,1012.13
2022-12-05T02:05:35.818Z,1012.10
2022-12-05T02:06:35.827Z,1012.16
2022-12-05T02:07:35.876Z,1012.14
2022-12-05T02:08:35.831Z,1012.17
2022-12-05T02:09:35.831Z,1012.10
2022-12-05T02:10:35.837Z,1012.14
2022-12-05T02:11:35.834Z,1012.16
2022-12-05T02:12:38.792Z,1012.16
2022-12-05T02:13:35.829Z,1012.19
2022-12-05T02:14:35.839Z,1012.19
2022-12-05T02:15:35.852Z,1012.18
2022-12-05T02:16:35.938Z,1012.17
2022-12-05T02:17:35.838Z,1012.22
2022-12-05T02:18:35.844Z,1012.20
2022-12-05T02:19:35.848Z,1012.27
2022-12-05T02:20:35.849Z,1012.23
2022-12-05T02:21:35.856Z,1012.18
2022-12-05T02:22:35.842Z,1012.24
2022-12-05T02:23:35.845Z,1012.20
2022-12-05T02:24:35.855Z,1012.26
2022-12-05T02:25:35.856Z,1012.22
2022-12-05T02:26:35.855Z,1012.22
2022-12-05T02:27:35.858Z,1012.20
2022-12-05T02:28:35.858Z,1012.21
2022-12-05T02:29:35.861Z,1012.22
2022-12-05T02:30:35.855Z,1012.22
2022-12-05T02:31:35.981Z,1012.20
2022-12-05T02:32:35.881Z,1012.22
2022-12-05T02:33:35.860Z,1012.23
2022-12-05T02:34:35.869Z,1012.25
2022-12-05T02:35:35.867Z,1012.21
2022-12-05T02:36:35.863Z,1012.22
2022-12-05T02:37:35.871Z,1012.21
2022-12-05T02:38:35.873Z,1012.18
2022-12-05T02:39:35.865Z,1012.22
2022-12-05T02:40:35.878Z,1012.17
2022-12-05T02:41:35.877Z,1012.17
2022-12-05T02:42:35.879Z,1012.16
2022-12-05T02:43:35.876Z,1012.11
2022-12-05T02:44:35.882Z,1012.17
2022-12-05T02:45:35.949Z,1012.16
2022-12-05T02:46:35.878Z,1012.15
2022-12-05T02:47:35.891Z,1012.13
2022-12-05T02:48:35.905Z,1012.15
2022-12-05T02:49:35.888Z,1012.09
2022-12-05T02:50:35.891Z,1012.11
2022-12-05T02:51:35.887Z,1012.12
2022-12-05T02:52:35.894Z,1012.03
2022-12-05T02:53:35.888Z,1012.05
2022-12-05T02:54:35.891Z,1012.04
2022-12-05T02:55:35.892Z,1012.05
2022-12-05T02:56:35.890Z,1011.99
2022-12-05T02:57:35.895Z,1012.01
2022-12-05T02:58:35.902Z,1011.96
2022-12-05T02:59:35.898Z,1011.99
2022-12-05T03:00:35.898Z,1011.94
2022-12-05T03:01:35.950Z,1011.94
2022-12-05T03:02:35.905Z,1011.98
2022-12-05T03:03:35.913Z,1011.95
2022-12-05T03:04:35.987Z,1011.92
2022-12-05T03:05:35.907Z,1011.93
2022-12-05T03:06:35.913Z,1011.90
2022-12-05T03:07:35.935Z,1011.93
2022-12-05T03:08:35.917Z,1011.91
2022-12-05T03:09:35.919Z,1011.97
2022-12-05T03:10:35.930Z,1011.93
2022-12-05T03:11:35.914Z,1011.95
2022-12-05T03:12:35.919Z,1011.97
2022-12-05T03:13:35.919Z,1011.94
2022-12-05T03:14:35.919Z,1011.97
2022-12-05T03:15:35.927Z,1011.91
2022-12-05T03:16:36.050Z,1011.95
2022-12-05T03:17:35.922Z,1011.96
2022-12-05T03:18:35.933Z,1011.96
2022-12-05T03:19:35.933Z,1011.96
2022-12-05T03:20:35.960Z,1011.98
2022-12-05T03:21:35.930Z,1011.99
2022-12-05T03:22:35.940Z,1012.00
2022-12-05T03:23:35.939Z,1012.04
2022-12-05T03:24:35.934Z,1012.02
2022-12-05T03:25:35.936Z,1012.03
2022-12-05T03:26:35.937Z,1011.99
2022-12-05T03:27:35.939Z,1011.98
2022-12-05T03:28:35.947Z,1011.98
2022-12-05T03:29:35.950Z,1011.98
2022-12-05T03:30:35.967Z,1012.00
2022-12-05T03:31:35.955Z,1011.96
2022-12-05T03:32:35.945Z,1011.99
2022-12-05T03:33:35.949Z,1011.99
2022-12-05T03:34:35.957Z,1012.01
2022-12-05T03:35:35.959Z,1011.98
2022-12-05T03:36:36.071Z,1011.97
2022-12-05T03:37:35.954Z,1012.03
2022-12-05T03:38:35.955Z,1012.02
2022-12-05T03:39:35.966Z,1012.01
2022-12-05T03:40:35.965Z,1011.98
2022-12-05T03:41:35.960Z,1012.00
2022-12-05T03:42:35.968Z,1012.01
2022-12-05T03:43:35.971Z,1012.01
2022-12-05T03:44:35.972Z,1012.04
2022-12-05T03:45:36.045Z,1012.05
2022-12-05T03:46:36.071Z,1012.02
2022-12-05T03:47:35.969Z,1012.07
2022-12-05T03:48:35.974Z,1012.00
2022-12-05T03:49:35.978Z,1011.98
2022-12-05T03:50:35.976Z,1012.00
2022-12-05T03:51:35.977Z,1012.02
2022-12-05T03:52:56.942Z,1012.00
2022-12-05T03:53:35.986Z,1012.00
2022-12-05T03:54:35.981Z,1012.01
2022-12-05T03:55:35.987Z,1012.03
2022-12-05T03:56:35.986Z,1012.03
2022-12-05T03:57:35.994Z,1012.07
2022-12-05T03:58:35.995Z,1012.07
2022-12-05T03:59:35.995Z,1012.04
2022-12-05T04:00:35.996Z,1012.10
2022-12-05T04:01:36.069Z,1012.07
2022-12-05T04:02:35.992Z,1012.08
2022-12-05T04:03:36.064Z,1012.07
2022-12-05T04:04:36.003Z,1012.08
2022-12-05T04:05:36.006Z,1012.10
2022-12-05T04:06:35.999Z,1012.09
2022-12-05T04:07:36.060Z,1012.12
2022-12-05T04:08:36.033Z,1012.13
2022-12-05T04:09:36.013Z,1012.15
2022-12-05T04:10:36.005Z,1012.13
2022-12-05T04:11:36.009Z,1012.16
2022-12-05T04:12:36.016Z,1012.14
2022-12-05T04:13:36.012Z,1012.14
2022-12-05T04:14:36.012Z,1012.14
2022-12-05T04:15:36.077Z,1012.13
2022-12-05T04:16:36.015Z,1012.12
2022-12-05T04:17:36.016Z,1012.12
2022-12-05T04:18:36.025Z,1012.13
2022-12-05T04:19:36.019Z,1012.08
2022-12-05T04:20:36.029Z,1012.09
2022-12-05T04:21:36.029Z,1012.08
2022-12-05T04:22:36.028Z,1012.09
2022-12-05T04:23:36.033Z,1012.10
2022-12-05T04:24:36.059Z,1012.09
2022-12-05T04:25:36.036Z,1012.10
2022-12-05T04:26:36.034Z,1012.08
2022-12-05T04:27:36.034Z,1012.12
2022-12-05T04:28:36.035Z,1012.13
2022-12-05T04:29:36.036Z,1012.13
2022-12-05T04:30:36.039Z,1012.11
2022-12-05T04:31:36.078Z,1012.13
2022-12-05T04:32:36.045Z,1012.09
2022-12-05T04:33:36.050Z,1012.09
2022-12-05T04:34:36.055Z,1012.08
2022-12-05T04:35:36.050Z,1012.11
2022-12-05T04:36:36.049Z,1012.11
2022-12-05T04:37:36.058Z,1012.08
2022-12-05T04:38:36.051Z,1012.09
2022-12-05T04:39:36.062Z,1012.09
2022-12-05T04:40:36.087Z,1012.12
2022-12-05T04:41:36.065Z,1012.11
2022-12-05T04:42:36.058Z,1012.08
2022-12-05T04:43:36.069Z,1012.10
2022-12-05T04:44:36.065Z,1012.12
2022-12-05T04:45:36.070Z,1012.11
2022-12-05T04:46:36.158Z,1012.11
2022-12-05T04:47:36.069Z,1012.11
2022-12-05T04:48:36.073Z,1012.07
2022-12-05T04:49:36.076Z,1012.11
2022-12-05T04:50:36.072Z,1012.06
2022-12-05T04:51:36.081Z,1012.05
2022-12-05T04:52:36.082Z,1012.08
2022-12-05T04:53:36.084Z,1012.05
2022-12-05T04:54:36.078Z,1012.06
2022-12-05T04:55:36.094Z,1012.03
2022-12-05T04:56:36.107Z,1012.09
2022-12-05T04:57:36.091Z,1012.07
2022-12-05T04:58:36.093Z,1012.06
2022-12-05T04:59:36.094Z,1012.07
2022-12-05T05:00:36.094Z,1012.06
2022-12-05T05:01:36.196Z,1012.01
2022-12-05T05:02:36.207Z,1012.04
2022-12-05T05:03:36.103Z,1012.08
2022-12-05T05:04:36.115Z,1012.09
2022-12-05T05:05:36.105Z,1012.06
2022-12-05T05:06:36.106Z,1012.09
2022-12-05T05:07:36.125Z,1012.09
2022-12-05T05:08:36.111Z,1012.07
2022-12-05T05:09:36.114Z,1012.10
2022-12-05T05:10:36.107Z,1012.12
2022-12-05T05:11:36.107Z,1012.06
2022-12-05T05:12:36.142Z,1012.09
2022-12-05T05:13:36.121Z,1012.08
2022-12-05T05:14:36.121Z,1012.08
2022-12-05T05:15:36.189Z,1012.08
2022-12-05T05:16:36.210Z,1012.09
2022-12-05T05:17:36.117Z,1012.07
2022-12-05T05:18:36.121Z,1012.08
2022-12-05T05:19:36.122Z,1012.08
2022-12-05T05:20:36.132Z,1012.11
2022-12-05T05:21:36.131Z,1012.06
2022-12-05T05:22:36.128Z,1012.07
2022-12-05T05:23:36.136Z,1012.06
2022-12-05T05:24:36.131Z,1012.04
2022-12-05T05:25:36.134Z,1012.06
2022-12-05T05:26:36.142Z,1012.04
2022-12-05T05:27:36.145Z,1012.07
2022-12-05T05:28:36.161Z,1012.03
2022-12-05T05:29:36.142Z,1012.09
2022-12-05T05:30:36.152Z,1012.11
2022-12-05T05:31:36.216Z,1012.10
2022-12-05T05:32:36.152Z,1012.10
2022-12-05T05:33:36.154Z,1012.09
2022-12-05T05:34:36.155Z,1012.08
2022-12-05T05:35:36.151Z,1012.09
2022-12-05T05:36:36.154Z,1012.11
2022-12-05T05:37:36.162Z,1012.10
2022-12-05T05:38:36.163Z,1012.12
2022-12-05T05:39:36.166Z,1012.17
2022-12-05T05:40:36.158Z,1012.14
2022-12-05T05:41:36.181Z,1012.13
2022-12-05T05:42:36.162Z,1012.16
2022-12-05T05:43:36.173Z,1012.15
2022-12-05T05:44:36.192Z,1012.14
2022-12-05T05:45:36.175Z,1012.15
2022-12-05T05:46:36.273Z,1012.18
2022-12-05T05:47:36.179Z,1012.19
2022-12-05T05:48:36.176Z,1012.18
2022-12-05T05:49:36.181Z,1012.21
2022-12-05T05:50:36.179Z,1012.21
2022-12-05T05:51:36.182Z,1012.23
2022-12-05T05:52:36.181Z,1012.26
2022-12-05T05:53:36.183Z,1012.24
2022-12-05T05:54:36.193Z,1012.27
2022-12-05T05:55:36.193Z,1012.29
2022-12-05T05:56:36.195Z,1012.28
2022-12-05T05:57:36.197Z,1012.26
2022-12-05T05:58:36.193Z,1012.27
2022-12-05T05:59:36.200Z,1012.24
2022-12-05T06:00:36.227Z,1012.25
2022-12-05T06:01:36.205Z,1012.29
2022-12-05T06:02:36.377Z,1012.27
2022-12-05T06:03:36.333Z,1012.25
2022-12-05T06:04:36.204Z,1012.27
2022-12-05T06:05:36.206Z,1012.29
2022-12-05T06:06:36.207Z,1012.25
2022-12-05T06:07:36.300Z,1012.30
2022-12-05T06:08:36.216Z,1012.26
2022-12-05T06:09:36.212Z,1012.29
2022-12-05T06:10:36.221Z,1012.26
2022-12-05T06:11:36.223Z,1012.25
2022-12-05T06:12:36.223Z,1012.27
2022-12-05T06:13:36.226Z,1012.27
2022-12-05T06:14:36.228Z,1012.30
2022-12-05T06:15:36.224Z,1012.30
2022-12-05T06:16:36.435Z,1012.31
2022-12-05T06:17:36.240Z,1012.28
2022-12-05T06:18:36.235Z,1012.33
2022-12-05T06:19:36.238Z,1012.34
2022-12-05T06:20:36.240Z,1012.33
2022-12-05T06:21:36.244Z,1012.34
2022-12-05T06:22:36.252Z,1012.32
2022-12-05T06:23:36.245Z,1012.31
2022-12-05T06:24:36.245Z,1012.30
2022-12-05T06:25:36.242Z,1012.31
2022-12-05T06:26:36.253Z,1012.32
2022-12-05T06:27:36.252Z,1012.31
2022-12-05T06:28:36.250Z,1012.34
2022-12-05T06:29:36.249Z,1012.32
2022-12-05T06:30:36.260Z,1012.35
2022-12-05T06:31:36.283Z,1012.34
2022-12-05T06:32:36.279Z,1012.34
2022-12-05T06:33:36.264Z,1012.32
2022-12-05T06:34:36.267Z,1012.33
2022-12-05T06:35:36.279Z,1012.35
2022-12-05T06:36:36.264Z,1012.36
2022-12-05T06:37:36.265Z,1012.36
2022-12-05T06:38:40.536Z,1012.37
2022-12-05T06:39:36.281Z,1012.37
2022-12-05T06:40:36.387Z,1012.37
2022-12-05T06:41:36.285Z,1012.35
2022-12-05T06:42:36.282Z,1012.41
2022-12-05T06:43:36.278Z,1012.40
2022-12-05T06:44:36.279Z,1012.41
2022-12-05T06:45:36.318Z,1012.42
2022-12-05T06:46:36.292Z,1012.43
2022-12-05T06:47:36.284Z,1012.44
2022-12-05T06:48:36.309Z,1012.48
2022-12-05T06:49:38.007Z,1012.46
2022-12-05T06:50:36.306Z,1012.48
2022-12-05T06:51:36.293Z,1012.52
2022-12-05T06:52:36.304Z,1012.52
2022-12-05T06:53:36.301Z,1012.49
2022-12-05T06:54:36.306Z,1012.47
2022-12-05T06:55:36.368Z,1012.49
2022-12-05T06:56:36.302Z,1012.48
2022-12-05T06:57:36.320Z,1012.46
2022-12-05T06:58:36.306Z,1012.47
2022-12-05T06:59:36.315Z,1012.48
2022-12-05T07:00:36.315Z,1012.50
2022-12-05T07:01:36.363Z,1012.54
2022-12-05T07:02:36.383Z,1012.51
2022-12-05T07:03:36.324Z,1012.55
2022-12-05T07:04:36.343Z,1012.53
2022-12-05T07:05:36.325Z,1012.55
2022-12-05T07:06:36.326Z,1012.56
2022-12-05T07:07:36.403Z,1012.56
2022-12-05T07:08:36.331Z,1012.60
2022-12-05T07:09:36.333Z,1012.56
2022-12-05T07:10:36.333Z,1012.58
2022-12-05T07:11:36.329Z,1012.59
2022-12-05T07:12:36.331Z,1012.62
2022-12-05T07:13:36.340Z,1012.61
2022-12-05T07:14:47.703Z,1012.59
2022-12-05T07:15:36.345Z,1012.61
2022-12-05T07:16:36.402Z,1012.61
2022-12-05T07:17:36.349Z,1012.64
2022-12-05T07:18:36.351Z,1012.66
2022-12-05T07:19:36.350Z,1012.60
2022-12-05T07:21:10.155Z,1012.62
2022-12-05T07:21:36.354Z,1012.63
2022-12-05T07:22:36.354Z,1012.62
2022-12-05T07:23:36.351Z,1012.61
2022-12-05T07:24:36.354Z,1012.67
2022-12-05T07:25:36.361Z,1012.65
2022-12-05T07:26:36.357Z,1012.65
2022-12-05T07:27:36.360Z,1012.62
2022-12-05T07:28:36.367Z,1012.67
2022-12-05T07:29:36.369Z,1012.64
2022-12-05T07:30:36.383Z,1012.65
2022-12-05T07:31:36.411Z,1012.67
2022-12-05T07:32:36.374Z,1012.63
2022-12-05T07:33:36.369Z,1012.64
2022-12-05T07:34:36.371Z,1012.69
2022-12-05T07:35:36.387Z,1012.69
2022-12-05T07:36:36.407Z,1012.72
2022-12-05T07:37:36.384Z,1012.69
2022-12-05T07:38:36.382Z,1012.68
2022-12-05T07:39:36.380Z,1012.69
2022-12-05T07:40:36.380Z,1012.73
2022-12-05T07:41:36.383Z,1012.68
2022-12-05T07:42:36.391Z,1012.70
2022-12-05T07:43:36.397Z,1012.71
2022-12-05T07:44:36.392Z,1012.71
2022-12-05T07:45:36.461Z,1012.69
2022-12-05T07:46:36.394Z,1012.71
2022-12-05T07:47:36.482Z,1012.70
2022-12-05T07:48:36.400Z,1012.69
2022-12-05T07:49:36.397Z,1012.68
2022-12-05T07:50:36.401Z,1012.69
2022-12-05T07:51:36.401Z,1012.68
2022-12-05T07:52:36.438Z,1012.70
2022-12-05T07:53:36.417Z,1012.67
2022-12-05T07:54:36.416Z,1012.67
2022-12-05T07:55:36.416Z,1012.66
2022-12-05T07:56:36.412Z,1012.70
2022-12-05T07:57:36.412Z,1012.69
2022-12-05T07:58:36.419Z,1012.72
2022-12-05T07:59:36.423Z,1012.67
2022-12-05T08:00:36.427Z,1012.70
2022-12-05T08:01:36.483Z,1012.68
2022-12-05T08:02:40.463Z,1012.67
2022-12-05T08:03:36.426Z,1012.66
2022-12-05T08:04:36.429Z,1012.69
2022-12-05T08:05:36.451Z,1012.70
2022-12-05T08:06:36.430Z,1012.65
2022-12-05T08:07:36.513Z,1012.69
2022-12-05T08:08:36.466Z,1012.70
2022-12-05T08:09:36.453Z,1012.65
2022-12-05T08:10:36.444Z,1012.70
2022-12-05T08:11:36.459Z,1012.74
2022-12-05T08:12:36.448Z,1012.70
2022-12-05T08:13:36.463Z,1012.69
2022-12-05T08:14:36.446Z,1012.72
2022-12-05T08:15:36.451Z,1012.70
2022-12-05T08:16:36.468Z,1012.66
2022-12-05T08:17:36.462Z,1012.70
2022-12-05T08:18:36.456Z,1012.70
2022-12-05T08:19:36.461Z,1012.70
2022-12-05T08:20:36.459Z,1012.74
2022-12-05T08:21:36.459Z,1012.72
2022-12-05T08:22:36.470Z,1012.70
2022-12-05T08:23:36.469Z,1012.71
2022-12-05T08:24:36.491Z,1012.71
2022-12-05T08:25:36.479Z,1012.70
2022-12-05T08:26:36.478Z,1012.71
2022-12-05T08:27:36.480Z,1012.73
2022-12-05T08:28:36.473Z,1012.76
2022-12-05T08:29:36.481Z,1012.74
2022-12-05T08:30:36.509Z,1012.77
2022-12-05T08:31:36.481Z,1012.76
2022-12-05T08:32:36.488Z,1012.79
2022-12-05T08:33:36.491Z,1012.83
2022-12-05T08:34:36.493Z,1012.81
2022-12-05T08:35:36.497Z,1012.80
2022-12-05T08:36:36.491Z,1012.76
2022-12-05T08:37:36.492Z,1012.81
2022-12-05T08:38:36.494Z,1012.78
2022-12-05T08:39:38.722Z,1012.79
2022-12-05T08:40:36.529Z,1012.78
2022-12-05T08:41:36.510Z,1012.81
2022-12-05T08:42:36.504Z,1012.82
2022-12-05T08:43:36.503Z,1012.84
2022-12-05T08:44:36.514Z,1012.85
2022-12-05T08:45:36.516Z,1012.82
2022-12-05T08:46:36.617Z,1012.85
2022-12-05T08:47:36.512Z,1012.86
2022-12-05T08:48:36.514Z,1012.83
2022-12-05T08:49:36.516Z,1012.85
2022-12-05T08:50:36.521Z,1012.83
2022-12-05T08:51:36.533Z,1012.89
2022-12-05T08:52:36.543Z,1012.88
2022-12-05T08:53:42.537Z,1012.86
2022-12-05T08:54:36.527Z,1012.85
2022-12-05T08:55:36.533Z,1012.87
2022-12-05T08:56:36.572Z,1012.86
2022-12-05T08:57:36.535Z,1012.89
2022-12-05T08:58:36.537Z,1012.89
2022-12-05T08:59:36.547Z,1012.89
2022-12-05T09:00:36.541Z,1012.88
2022-12-05T09:01:36.717Z,1012.89
2022-12-05T09:02:36.613Z,1012.86
2022-12-05T09:03:36.554Z,1012.85
2022-12-05T09:04:36.548Z,1012.88
2022-12-05T09:05:36.565Z,1012.88
2022-12-05T09:06:36.556Z,1012.90
2022-12-05T09:07:36.684Z,1012.87
2022-12-05T09:08:36.558Z,1012.91
2022-12-05T09:09:36.564Z,1012.91
2022-12-05T09:10:36.565Z,1012.92
2022-12-05T09:11:36.596Z,1012.92
2022-12-05T09:12:36.601Z,1012.95
2022-12-05T09:13:36.570Z,1012.95
2022-12-05T09:14:36.580Z,1012.96
2022-12-05T09:15:36.597Z,1012.99
2022-12-05T09:16:38.391Z,1012.94
2022-12-05T09:17:36.584Z,1012.93
2022-12-05T09:18:36.589Z,1012.95
2022-12-05T09:19:36.591Z,1012.94
2022-12-05T09:20:36.593Z,1012.90
2022-12-05T09:21:36.594Z,1012.94
2022-12-05T09:22:36.601Z,1012.93
2022-12-05T09:23:36.600Z,1012.91
2022-12-05T09:24:36.602Z,1012.88
2022-12-05T09:25:36.599Z,1012.89
2022-12-05T09:26:36.607Z,1012.89
2022-12-05T09:27:36.613Z,1012.87
2022-12-05T09:28:36.631Z,1012.91
2022-12-05T09:29:36.610Z,1012.87
2022-12-05T09:30:36.733Z,1012.83
2022-12-05T09:31:36.731Z,1012.85
2022-12-05T09:32:36.615Z,1012.83
2022-12-05T09:33:36.623Z,1012.85
2022-12-05T09:34:36.624Z,1012.84
2022-12-05T09:35:36.628Z,1012.86
2022-12-05T09:36:36.629Z,1012.89
2022-12-05T09:37:39.623Z,1012.89
2022-12-05T09:38:36.628Z,1012.91
2022-12-05T09:39:36.636Z,1012.88
2022-12-05T09:40:36.637Z,1012.89
2022-12-05T09:41:36.635Z,1012.90
2022-12-05T09:42:36.634Z,1012.93
2022-12-05T09:43:36.646Z,1012.87
2022-12-05T09:44:36.666Z,1012.88
2022-12-05T09:45:36.647Z,1012.89
2022-12-05T09:46:36.743Z,1012.89
2022-12-05T09:47:36.645Z,1012.88
2022-12-05T09:48:36.650Z,1012.89
2022-12-05T09:49:36.658Z,1012.84
2022-12-05T09:50:36.669Z,1012.85
2022-12-05T09:51:36.661Z,1012.89
2022-12-05T09:52:36.665Z,1012.86
2022-12-05T09:53:36.667Z,1012.86
2022-12-05T09:54:36.673Z,1012.85
2022-12-05T09:55:36.664Z,1012.85
2022-12-05T09:56:36.677Z,1012.82
2022-12-05T09:57:36.668Z,1012.84
2022-12-05T09:58:36.671Z,1012.79
2022-12-05T09:59:36.682Z,1012.81
2022-12-05T10:00:36.706Z,1012.75
2022-12-05T10:01:36.754Z,1012.78
2022-12-05T10:02:36.687Z,1012.76
2022-12-05T10:03:36.700Z,1012.76
2022-12-05T10:04:36.714Z,1012.73
2022-12-05T10:05:36.695Z,1012.69
2022-12-05T10:06:36.695Z,1012.73
2022-12-05T10:07:36.754Z,1012.71
2022-12-05T10:08:36.693Z,1012.70
2022-12-05T10:09:36.704Z,1012.68
2022-12-05T10:10:36.698Z,1012.68
2022-12-05T10:11:36.703Z,1012.68
2022-12-05T10:12:36.712Z,1012.66
2022-12-05T10:13:36.707Z,1012.68
2022-12-05T10:14:36.719Z,1012.63
2022-12-05T10:15:36.770Z,1012.64
2022-12-05T10:16:36.800Z,1012.63
2022-12-05T10:17:36.723Z,1012.66
2022-12-05T10:18:36.718Z,1012.64
2022-12-05T10:19:36.721Z,1012.66
2022-12-05T10:20:36.725Z,1012.66
2022-12-05T10:21:36.725Z,1012.65
2022-12-05T10:22:36.739Z,1012.63
2022-12-05T10:24:36.735Z,1012.69
2022-12-05T10:25:36.743Z,1012.64
2022-12-05T10:26:36.747Z,1012.66
2022-12-05T10:27:40.032Z,1012.72
2022-12-05T10:28:36.745Z,1012.67
2022-12-05T10:29:36.752Z,1012.66
2022-12-05T10:30:36.758Z,1012.70
2022-12-05T10:31:36.828Z,1012.67
2022-12-05T10:32:36.778Z,1012.71
2022-12-05T10:33:36.756Z,1012.73
2022-12-05T10:34:36.760Z,1012.75
2022-12-05T10:35:36.769Z,1012.72
2022-12-05T10:36:36.771Z,1012.72
2022-12-05T10:37:36.771Z,1012.73
2022-12-05T10:38:36.778Z,1012.73
2022-12-05T10:39:36.774Z,1012.72
2022-12-05T10:40:36.783Z,1012.78
2022-12-05T10:41:36.786Z,1012.77
2022-12-05T10:42:36.787Z,1012.74
2022-12-05T10:43:36.791Z,1012.75
2022-12-05T10:44:36.794Z,1012.76
2022-12-05T10:45:36.794Z,1012.75
2022-12-05T10:46:36.885Z,1012.75
2022-12-05T10:47:36.802Z,1012.74
2022-12-05T10:48:36.826Z,1012.78
2022-12-05T10:49:36.798Z,1012.71
2022-12-05T10:50:36.803Z,1012.73
2022-12-05T10:51:37.883Z,1012.72
2022-12-05T10:52:36.811Z,1012.74
2022-12-05T10:53:36.816Z,1012.74
2022-12-05T10:54:36.822Z,1012.73
2022-12-05T10:55:36.815Z,1012.82
2022-12-05T10:56:36.825Z,1012.78
2022-12-05T10:57:36.833Z,1012.80
2022-12-05T10:58:36.832Z,1012.77
2022-12-05T10:59:36.827Z,1012.78
2022-12-05T11:00:36.893Z,1012.82
2022-12-05T11:01:36.890Z,1012.79
2022-12-05T11:02:36.850Z,1012.81
2022-12-05T11:03:36.842Z,1012.80
2022-12-05T11:04:36.909Z,1012.82
2022-12-05T11:05:36.960Z,1012.81
2022-12-05T11:06:36.853Z,1012.82
2022-12-05T11:07:36.916Z,1012.83
2022-12-05T11:09:03.202Z,1012.82
2022-12-05T11:09:36.853Z,1012.85
2022-12-05T11:10:36.854Z,1012.83
2022-12-05T11:11:36.864Z,1012.79
2022-12-05T11:12:36.865Z,1012.80
2022-12-05T11:13:36.871Z,1012.74
2022-12-05T11:14:36.869Z,1012.75
2022-12-05T11:15:36.877Z,1012.72
2022-12-05T11:16:36.920Z,1012.68
2022-12-05T11:17:36.875Z,1012.66
2022-12-05T11:18:36.875Z,1012.65
2022-12-05T11:19:36.918Z,1012.66
2022-12-05T11:20:36.900Z,1012.63
2022-12-05T11:21:36.893Z,1012.61
2022-12-05T11:22:36.910Z,1012.61
2022-12-05T11:23:36.897Z,1012.63
2022-12-05T11:24:36.892Z,1012.62
2022-12-05T11:25:36.901Z,1012.65
2022-12-05T11:26:36.912Z,1012.63
2022-12-05T11:27:36.910Z,1012.64
2022-12-05T11:28:36.908Z,1012.65
2022-12-05T11:29:36.907Z,1012.61
2022-12-05T11:30:36.916Z,1012.63
2022-12-05T11:31:37.020Z,1012.65
2022-12-05T11:32:36.924Z,1012.67
2022-12-05T11:33:36.922Z,1012.65
2022-12-05T11:34:36.923Z,1012.65
2022-12-05T11:35:36.928Z,1012.64
2022-12-05T11:36:36.943Z,1012.61
2022-12-05T11:37:36.932Z,1012.63
2022-12-05T11:38:36.927Z,1012.61
2022-12-05T11:39:36.937Z,1012.58
2022-12-05T11:40:38.864Z,1012.59
2022-12-05T11:41:36.939Z,1012.64
2022-12-05T11:42:36.943Z,1012.59
2022-12-05T11:43:36.948Z,1012.55
2022-12-05T11:44:36.940Z,1012.61
2022-12-05T11:45:36.952Z,1012.58
2022-12-05T11:46:37.023Z,1012.53
2022-12-05T11:47:36.957Z,1012.56
2022-12-05T11:48:36.958Z,1012.51
2022-12-05T11:49:36.954Z,1012.51
2022-12-05T11:50:36.956Z,1012.55
2022-12-05T11:51:36.968Z,1012.57
2022-12-05T11:52:40.570Z,1012.53
2022-12-05T11:53:36.963Z,1012.55
2022-12-05T11:55:03.797Z,1012.55
2022-12-05T11:55:36.974Z,1012.58
2022-12-05T11:56:36.977Z,1012.58
2022-12-05T11:57:36.970Z,1012.56
2022-12-05T11:58:36.983Z,1012.53
2022-12-05T11:59:36.976Z,1012.53
2022-12-05T12:00:36.982Z,1012.53
2022-12-05T12:01:37.074Z,1012.55
2022-12-05T12:02:37.127Z,1012.56
2022-12-05T12:03:37.081Z,1012.56
2022-12-05T12:04:36.987Z,1012.55
2022-12-05T12:05:37.002Z,1012.55
2022-12-05T12:06:36.999Z,1012.52